Time;durP1;ratioP1;P1;durP2;ratioP2;P2;SDS_P1;SDS_P2;PMS_P1;PMS_P2;Temp;Humidity;BMP_temperature;BMP_pressure;BME280_temperature;BME280_humidity;BME280_pressure;Samples;Min_cycle;Max_cycle;Signal;HPM_P1;HPM_P2
2024/03/23 00:01:41;;;;;;;20.60;4.03;;;6.80;99.90;;;;;;5071324;28;20531;-52
2024/03/23 00:04:08;;;;;;;21.03;3.57;;;6.80;99.90;;;;;;5071289;28;20029;-53
2024/03/23 00:06:35;;;;;;;17.60;3.90;;;6.80;99.90;;;;;;5071303;28;20078;-52
2024/03/23 00:09:01;;;;;;;20.57;3.70;;;6.80;99.90;;;;;;5071336;28;20033;-49
2024/03/23 00:11:28;;;;;;;18.20;3.70;;;6.80;99.90;;;;;;5071168;28;20032;-50
2024/03/23 00:13:54;;;;;;;24.87;4.93;;;6.70;99.90;;;;;;5053227;28;20033;-50
2024/03/23 00:16:25;;;;;;;16.87;4.00;;;6.70;99.90;;;;;;5071174;28;20029;-48
2024/03/23 00:18:54;;;;;;;31.13;4.60;;;6.70;99.90;;;;;;5071294;28;20029;-51
2024/03/23 00:21:20;;;;;;;;;;;6.70;99.90;;;;;;5071806;28;20021;-53
2024/03/23 00:23:47;;;;;;;22.67;4.03;;;6.70;99.90;;;;;;5071055;28;19913;-52
2024/03/23 00:26:14;;;;;;;19.77;3.60;;;6.70;99.90;;;;;;5071132;28;20036;-49
2024/03/23 00:28:40;;;;;;;24.47;4.00;;;6.70;99.90;;;;;;5071168;28;20043;-51
2024/03/23 00:31:07;;;;;;;23.60;3.63;;;6.70;99.90;;;;;;5053285;28;20041;-53
2024/03/23 00:33:33;;;;;;;22.17;3.90;;;6.70;99.90;;;;;;5070973;28;20033;-53
2024/03/23 00:36:01;;;;;;;24.50;3.47;;;6.70;99.90;;;;;;5073983;28;20029;-51
2024/03/23 00:38:27;;;;;;;24.87;3.60;;;6.70;99.90;;;;;;5074560;28;20078;-52
2024/03/23 00:40:54;;;;;;;16.73;4.03;;;6.60;99.90;;;;;;5074477;28;20078;-50
2024/03/23 00:43:22;;;;;;;17.63;4.20;;;6.60;99.90;;;;;;5074605;28;20477;-54
2024/03/23 00:45:49;;;;;;;16.90;3.33;;;6.50;99.90;;;;;;5074310;28;20070;-53
2024/03/23 00:48:16;;;;;;;21.07;3.70;;;6.50;99.90;;;;;;5074414;28;20044;-52
2024/03/23 00:50:42;;;;;;;15.00;3.07;;;6.50;99.90;;;;;;5074484;28;20037;-52
2024/03/23 00:53:09;;;;;;;16.57;3.57;;;6.50;99.90;;;;;;5074357;28;20473;-53
2024/03/23 00:55:34;;;;;;;14.20;3.33;;;6.50;99.90;;;;;;5074051;28;20443;-53
2024/03/23 00:58:00;;;;;;;17.13;3.70;;;6.50;99.90;;;;;;5073343;28;20028;-50
2024/03/23 01:00:25;;;;;;;18.57;4.40;;;6.50;99.90;;;;;;5074177;28;20038;-53
2024/03/23 01:02:51;;;;;;;24.17;3.90;;;6.60;99.90;;;;;;5056455;28;20029;-52
2024/03/23 01:05:17;;;;;;;22.50;3.93;;;6.60;99.90;;;;;;5056021;28;20032;-49
2024/03/23 01:07:42;;;;;;;15.93;3.60;;;6.50;99.90;;;;;;5074015;28;20103;-54
2024/03/23 01:10:08;;;;;;;16.17;4.00;;;6.50;99.90;;;;;;5056195;28;20423;-50
2024/03/23 01:12:33;;;;;;;13.67;3.17;;;6.40;99.90;;;;;;5074047;28;20068;-54
2024/03/23 01:14:59;;;;;;;10.67;2.50;;;6.40;99.90;;;;;;5073777;28;20078;-51
2024/03/23 01:17:25;;;;;;;8.80;1.80;;;6.40;99.90;;;;;;5073975;28;20063;-50
2024/03/23 01:19:50;;;;;;;7.07;1.50;;;6.30;99.90;;;;;;5073998;28;20028;-53
2024/03/23 01:22:16;;;;;;;11.87;2.30;;;6.20;99.90;;;;;;5073749;28;20031;-50
2024/03/23 01:24:41;;;;;;;7.97;1.77;;;6.20;99.90;;;;;;5073627;28;20394;-51
2024/03/23 01:27:08;;;;;;;11.27;2.43;;;6.10;99.90;;;;;;5073801;28;20040;-50
2024/03/23 01:29:34;;;;;;;8.43;1.50;;;6.00;99.90;;;;;;5073568;28;20039;-48
2024/03/23 01:31:59;;;;;;;12.37;2.07;;;6.00;99.90;;;;;;5073759;28;20028;-49
2024/03/23 01:34:25;;;;;;;9.80;1.47;;;6.00;99.90;;;;;;5073414;28;20473;-54
2024/03/23 01:36:51;;;;;;;8.90;1.60;;;6.00;99.90;;;;;;5073428;28;20159;-49
2024/03/23 01:39:17;;;;;;;8.37;2.07;;;6.10;99.90;;;;;;5073554;28;20028;-51
2024/03/23 01:41:43;;;;;;;9.67;1.93;;;6.10;99.90;;;;;;5073452;28;20095;-52
2024/03/23 01:44:09;;;;;;;9.50;1.60;;;6.00;99.90;;;;;;5073326;28;20040;-51
2024/03/23 01:46:36;;;;;;;13.10;2.40;;;6.00;99.90;;;;;;5073124;28;20400;-52
2024/03/23 01:49:02;;;;;;;11.60;1.77;;;6.00;99.90;;;;;;5073315;28;20056;-49
2024/03/23 01:51:28;;;;;;;9.50;2.20;;;6.00;99.90;;;;;;5073626;28;20125;-49
2024/03/23 01:53:54;;;;;;;10.67;2.40;;;6.10;99.90;;;;;;5072983;28;20029;-49
2024/03/23 01:56:20;;;;;;;12.50;2.43;;;6.10;99.90;;;;;;5073036;28;20033;-52
2024/03/23 01:58:46;;;;;;;10.70;2.37;;;6.10;99.90;;;;;;5073084;28;20116;-50
2024/03/23 02:01:11;;;;;;;10.47;2.40;;;6.20;99.90;;;;;;5073006;28;20031;-50
2024/03/23 02:03:37;;;;;;;11.23;2.13;;;6.20;99.90;;;;;;5073108;28;20400;-48
2024/03/23 02:06:04;;;;;;;8.93;2.43;;;6.20;99.90;;;;;;5072738;28;20020;-49
2024/03/23 02:08:31;;;;;;;11.03;2.00;;;6.20;99.90;;;;;;5073019;28;20029;-52
2024/03/23 02:10:58;;;;;;;12.30;2.53;;;6.20;99.90;;;;;;5072904;28;20040;-48
2024/03/23 02:13:24;;;;;;;9.17;1.90;;;6.10;99.90;;;;;;5072786;28;20538;-48
2024/03/23 02:15:49;;;;;;;11.10;2.17;;;6.10;99.90;;;;;;5072710;28;20036;-51
2024/03/23 02:18:15;;;;;;;9.63;2.13;;;6.10;99.90;;;;;;5072940;28;20036;-48
2024/03/23 02:20:41;;;;;;;10.37;1.97;;;6.10;99.90;;;;;;5072676;28;20024;-48
2024/03/23 02:23:13;;;;;;;10.77;2.07;;;6.10;99.90;;;;;;5073036;28;20115;-49
2024/03/23 02:25:39;;;;;;;13.27;2.40;;;6.10;99.90;;;;;;5072870;28;20033;-51
2024/03/23 02:28:05;;;;;;;10.40;2.30;;;6.00;99.90;;;;;;5072967;28;20031;-48
2024/03/23 02:30:30;;;;;;;13.67;3.10;;;5.90;99.90;;;;;;5073579;28;20025;-53
2024/03/23 02:32:56;;;;;;;12.73;3.20;;;5.90;99.90;;;;;;5073700;28;20477;-50
2024/03/23 02:35:21;;;;;;;14.10;3.00;;;5.90;99.90;;;;;;5073252;28;20039;-49
2024/03/23 02:37:50;;;;;;;10.07;3.20;;;5.80;99.90;;;;;;5074136;28;20150;-48
2024/03/23 02:40:17;;;;;;;16.02;2.60;;;5.90;99.90;;;;;;5072894;28;20033;-54
2024/03/23 02:42:43;;;;;;;10.23;2.83;;;5.90;99.90;;;;;;5073028;28;20162;-53
2024/03/23 02:45:09;;;;;;;14.80;2.87;;;5.90;99.90;;;;;;5072176;28;20111;-53
2024/03/23 02:47:34;;;;;;;10.93;2.53;;;5.90;99.90;;;;;;5072220;28;20039;-53
2024/03/23 02:50:00;;;;;;;14.10;2.40;;;6.00;99.90;;;;;;5072049;28;20029;-52
2024/03/23 02:52:26;;;;;;;9.80;2.63;;;6.00;99.90;;;;;;5072161;28;20028;-52
2024/03/23 02:54:51;;;;;;;16.87;4.17;;;6.00;99.90;;;;;;5054002;28;20036;-53
2024/03/23 02:57:17;;;;;;;13.50;2.57;;;6.00;99.90;;;;;;5071414;28;20028;-53
2024/03/23 02:59:43;;;;;;;8.83;2.27;;;6.10;99.90;;;;;;5071973;28;20570;-54
2024/03/23 03:02:08;;;;;;;12.17;2.40;;;6.10;99.90;;;;;;5072096;28;20036;-52
2024/03/23 03:04:34;;;;;;;10.23;2.60;;;6.10;99.90;;;;;;5071726;28;20032;-50
2024/03/23 03:07:00;;;;;;;11.80;2.33;;;6.10;99.90;;;;;;5072056;28;20043;-52
2024/03/23 03:09:26;;;;;;;11.93;2.60;;;6.10;99.90;;;;;;5071907;28;20050;-53
2024/03/23 03:11:51;;;;;;;15.00;2.20;;;6.10;99.90;;;;;;5071858;28;20466;-54
2024/03/23 03:14:17;;;;;;;10.93;2.07;;;6.10;99.90;;;;;;5071669;28;20024;-54
2024/03/23 03:16:43;;;;;;;9.70;2.17;;;6.10;99.90;;;;;;5071775;28;20067;-52
2024/03/23 03:19:10;;;;;;;11.10;1.63;;;6.10;99.90;;;;;;5071733;28;20447;-51
2024/03/23 03:21:35;;;;;;;7.23;2.63;;;6.10;99.90;;;;;;5071722;28;20186;-53
2024/03/23 03:24:01;;;;;;;12.40;1.93;;;6.10;99.90;;;;;;5071644;28;20025;-52
2024/03/23 03:26:27;;;;;;;8.57;1.77;;;6.10;99.90;;;;;;5070563;28;20499;-53
2024/03/23 03:28:53;;;;;;;11.30;1.80;;;6.10;99.90;;;;;;5071731;28;20035;-50
2024/03/23 03:31:18;;;;;;;9.00;2.00;;;6.20;99.90;;;;;;5071676;28;20028;-49
2024/03/23 03:33:44;;;;;;;9.77;1.97;;;6.10;99.90;;;;;;5071465;28;20397;-48
2024/03/23 03:36:10;;;;;;;6.43;1.57;;;6.10;99.90;;;;;;5071650;28;20442;-52
2024/03/23 03:38:36;;;;;;;7.87;1.57;;;6.10;99.90;;;;;;5071537;28;20028;-51
2024/03/23 03:41:02;;;;;;;10.33;2.03;;;6.10;99.90;;;;;;5071597;28;20024;-49
2024/03/23 03:43:28;;;;;;;9.43;1.90;;;6.10;99.90;;;;;;5071650;28;20078;-52
2024/03/23 03:45:56;;;;;;;12.57;1.90;;;6.10;99.90;;;;;;5071438;28;20427;-50
2024/03/23 03:48:21;;;;;;;8.30;1.80;;;6.10;99.90;;;;;;5071492;28;20032;-50
2024/03/23 03:50:47;;;;;;;10.43;2.07;;;6.00;99.90;;;;;;5071450;28;20029;-50
2024/03/23 03:53:13;;;;;;;8.27;1.53;;;6.00;99.90;;;;;;5071546;28;20049;-54
2024/03/23 03:55:38;;;;;;;11.23;1.90;;;6.00;99.90;;;;;;5053217;28;20621;-50
2024/03/23 03:58:04;;;;;;;7.30;1.60;;;6.00;99.90;;;;;;5071633;28;20082;-49
2024/03/23 04:00:30;;;;;;;11.27;2.40;;;6.00;99.90;;;;;;5071451;28;20025;-51
2024/03/23 04:02:56;;;;;;;8.70;1.77;;;6.00;99.90;;;;;;5071336;28;20041;-49
2024/03/23 04:05:22;;;;;;;11.43;2.00;;;6.00;99.90;;;;;;5071210;28;20032;-49
2024/03/23 04:07:48;;;;;;;9.63;2.27;;;6.00;99.90;;;;;;5071345;28;20032;-50
2024/03/23 04:10:14;;;;;;;12.10;1.77;;;6.10;99.90;;;;;;5075000;28;20025;-50
2024/03/23 04:12:40;;;;;;;13.77;2.10;;;6.10;99.90;;;;;;5075150;28;20115;-50
2024/03/23 04:15:06;;;;;;;9.20;1.77;;;6.10;99.90;;;;;;5074891;28;20111;-50
2024/03/23 04:17:33;;;;;;;9.40;1.97;;;6.00;99.90;;;;;;5074988;28;20028;-53
2024/03/23 04:20:00;;;;;;;6.70;1.60;;;6.00;99.90;;;;;;5074985;28;20072;-50
2024/03/23 04:22:27;;;;;;;14.77;1.83;;;6.00;99.90;;;;;;5075038;28;20032;-49
2024/03/23 04:24:58;;;;;;;10.27;2.30;;;6.10;99.90;;;;;;5074796;28;20028;-50
2024/03/23 04:27:24;;;;;;;8.13;1.50;;;6.10;99.90;;;;;;5074939;28;20425;-53
2024/03/23 04:29:53;;;;;;;6.23;1.70;;;6.10;99.90;;;;;;5074650;28;20115;-51
2024/03/23 04:32:18;;;;;;;15.15;2.00;;;6.10;99.90;;;;;;5074788;28;20549;-51
2024/03/23 04:34:45;;;;;;;8.77;2.20;;;6.10;99.90;;;;;;5074554;28;20036;-49
2024/03/23 04:37:11;;;;;;;13.57;2.30;;;6.10;99.90;;;;;;5056677;28;20035;-52
2024/03/23 04:39:37;;;;;;;9.60;2.10;;;6.10;99.90;;;;;;5074634;28;20477;-47
2024/03/23 04:42:03;;;;;;;11.00;2.80;;;6.10;99.90;;;;;;5074703;28;20036;-51
2024/03/23 04:44:30;;;;;;;10.53;2.37;;;6.10;99.90;;;;;;5074523;28;20060;-51
2024/03/23 04:47:00;;;;;;;12.67;3.17;;;6.10;99.90;;;;;;5074430;28;20466;-48
2024/03/23 04:49:26;;;;;;;12.87;3.07;;;6.10;99.90;;;;;;5074640;28;20372;-48
2024/03/23 04:51:51;;;;;;;13.63;2.77;;;6.10;99.90;;;;;;5074642;28;20025;-50
2024/03/23 04:54:17;;;;;;;15.07;2.90;;;6.00;99.90;;;;;;5074246;28;20074;-49
2024/03/23 04:56:43;;;;;;;13.90;3.27;;;6.10;99.90;;;;;;5056284;28;20032;-48
2024/03/23 04:59:09;;;;;;;12.37;2.97;;;6.10;99.90;;;;;;5074300;28;20059;-48
2024/03/23 05:01:35;;;;;;;12.43;2.70;;;6.10;99.90;;;;;;5074185;28;20363;-48
2024/03/23 05:04:02;;;;;;;14.87;3.30;;;6.10;99.90;;;;;;5074376;28;20086;-52
2024/03/23 05:06:28;;;;;;;14.00;3.20;;;6.10;99.90;;;;;;5074176;28;20028;-48
2024/03/23 05:08:54;;;;;;;14.93;3.30;;;6.10;99.90;;;;;;5074124;28;20036;-50
2024/03/23 05:11:20;;;;;;;15.83;3.57;;;6.10;99.90;;;;;;5074084;28;20024;-50
2024/03/23 05:13:46;;;;;;;15.47;4.00;;;6.10;99.90;;;;;;5073700;28;20081;-52
2024/03/23 05:16:12;;;;;;;15.63;3.93;;;6.10;99.90;;;;;;5073905;28;20029;-49
2024/03/23 05:18:37;;;;;;;14.20;3.90;;;6.10;99.90;;;;;;5073981;28;20118;-50
2024/03/23 05:21:03;;;;;;;19.63;4.97;;;6.10;99.90;;;;;;5073324;28;20030;-54
2024/03/23 05:23:29;;;;;;;18.93;5.10;;;6.10;99.90;;;;;;5073902;28;20500;-51
2024/03/23 05:25:55;;;;;;;16.07;4.93;;;6.10;99.90;;;;;;5073703;28;20017;-51
2024/03/23 05:28:21;;;;;;;15.87;4.10;;;6.10;99.90;;;;;;5073709;28;20482;-48
2024/03/23 05:30:54;;;;;;;17.00;5.17;;;6.20;99.90;;;;;;5073601;28;20027;-53
2024/03/23 05:33:21;;;;;;;13.10;4.87;;;6.20;99.90;;;;;;5073653;28;20473;-53
2024/03/23 05:35:47;;;;;;;19.00;4.57;;;6.10;99.90;;;;;;5073287;28;20040;-52
2024/03/23 05:38:13;;;;;;;15.97;4.23;;;6.10;99.90;;;;;;5073554;28;20048;-51
2024/03/23 05:40:40;;;;;;;18.20;5.47;;;6.10;99.90;;;;;;5073478;28;20069;-49
2024/03/23 05:43:09;;;;;;;19.43;4.20;;;6.10;99.90;;;;;;5073524;28;20067;-53
2024/03/23 05:45:34;;;;;;;20.48;5.28;;;6.10;99.90;;;;;;5073291;28;20120;-50
2024/03/23 05:48:00;;;;;;;17.00;4.87;;;6.10;99.90;;;;;;5073387;28;20115;-52
2024/03/23 05:50:26;;;;;;;14.93;5.17;;;6.00;99.90;;;;;;5073640;28;20044;-49
2024/03/23 05:52:52;;;;;;;13.90;4.83;;;6.10;99.90;;;;;;5073364;28;20032;-52
2024/03/23 05:55:17;;;;;;;17.77;4.70;;;6.10;99.90;;;;;;5072979;28;20073;-52
2024/03/23 05:57:43;;;;;;;13.20;4.87;;;6.00;99.90;;;;;;5073290;28;20034;-49
2024/03/23 06:00:15;;;;;;;16.10;4.70;;;6.00;99.90;;;;;;5073012;28;20029;-49
2024/03/23 06:02:44;;;;;;;17.90;4.67;;;6.00;99.90;;;;;;5055165;28;20039;-49
2024/03/23 06:05:10;;;;;;;17.73;4.53;;;6.00;99.90;;;;;;5072996;28;20035;-52
2024/03/23 06:07:36;;;;;;;14.67;4.30;;;6.00;99.90;;;;;;5072952;28;20484;-53
2024/03/23 06:10:02;;;;;;;9.93;4.40;;;6.00;99.90;;;;;;5072833;28;20028;-52
2024/03/23 06:12:27;;;;;;;15.30;4.70;;;6.00;99.90;;;;;;5072971;28;20070;-50
2024/03/23 06:14:53;;;;;;;16.87;4.50;;;6.00;99.90;;;;;;5072574;28;20086;-50
2024/03/23 06:17:19;;;;;;;17.50;4.60;;;6.00;99.90;;;;;;5072769;28;20025;-49
2024/03/23 06:19:44;;;;;;;14.80;4.60;;;6.10;99.90;;;;;;5072738;28;20032;-49
2024/03/23 06:22:10;;;;;;;17.73;5.07;;;6.10;99.90;;;;;;5072653;28;20024;-51
2024/03/23 06:24:36;;;;;;;16.90;5.30;;;6.10;99.90;;;;;;5072535;28;20055;-52
2024/03/23 06:27:01;;;;;;;18.53;4.73;;;6.00;99.90;;;;;;5072500;28;20496;-52
2024/03/23 06:29:27;;;;;;;11.67;4.73;;;6.00;99.90;;;;;;5054601;28;20032;-50
2024/03/23 06:31:56;;;;;;;16.40;5.17;;;6.00;99.90;;;;;;5071641;28;20032;-50
2024/03/23 06:34:22;;;;;;;19.35;5.82;;;6.10;99.90;;;;;;5072330;28;20032;-50
2024/03/23 06:36:49;;;;;;;22.70;6.40;;;6.10;99.90;;;;;;5072318;28;20025;-53
2024/03/23 06:39:15;;;;;;;19.63;5.97;;;6.20;99.90;;;;;;5072412;28;20028;-51
2024/03/23 06:42:01;;;;;;;16.47;6.10;;;6.20;99.90;;;;;;5072337;28;20025;-52
2024/03/23 06:44:27;;;;;;;19.50;6.30;;;6.30;99.90;;;;;;5071941;28;20146;-48
2024/03/23 06:46:52;;;;;;;17.90;7.17;;;6.30;99.90;;;;;;5072200;28;20481;-53
2024/03/23 06:49:18;;;;;;;19.27;6.10;;;6.40;99.90;;;;;;5072262;28;20035;-51
2024/03/23 06:51:45;;;;;;;13.60;6.17;;;6.50;99.90;;;;;;5072202;28;20036;-51
2024/03/23 06:54:11;;;;;;;16.03;6.67;;;6.60;99.90;;;;;;5071937;28;20125;-51
2024/03/23 06:56:36;;;;;;;21.53;7.10;;;6.60;99.90;;;;;;5072059;28;20071;-53
2024/03/23 06:59:02;;;;;;;17.43;6.03;;;6.80;99.90;;;;;;5072057;28;20431;-50
2024/03/23 07:01:28;;;;;;;17.93;6.40;;;6.90;99.90;;;;;;5072049;28;20020;-52
2024/03/23 07:03:54;;;;;;;14.20;5.43;;;7.00;99.90;;;;;;5071876;28;20382;-48
2024/03/23 07:06:20;;;;;;;21.00;7.33;;;7.20;99.90;;;;;;5071939;28;20481;-50
2024/03/23 07:08:46;;;;;;;15.90;5.23;;;7.30;99.90;;;;;;5072021;28;20043;-53
2024/03/23 07:11:11;;;;;;;18.47;5.70;;;7.30;99.90;;;;;;5054186;28;20028;-52
2024/03/23 07:13:37;;;;;;;15.53;5.37;;;7.40;99.90;;;;;;5071962;28;20067;-53
2024/03/23 07:16:03;;;;;;;18.87;5.33;;;7.50;99.90;;;;;;5071804;28;20030;-52
2024/03/23 07:18:28;;;;;;;20.00;6.40;;;7.60;99.90;;;;;;5071856;28;20025;-50
2024/03/23 07:20:58;;;;;;;16.10;5.63;;;7.90;99.90;;;;;;5071852;28;20029;-51
2024/03/23 07:23:25;;;;;;;14.40;4.67;;;8.30;99.90;;;;;;5071842;28;20029;-54
2024/03/23 07:26:07;;;;;;;14.07;5.07;;;8.60;99.90;;;;;;5071668;28;20032;-49
2024/03/23 07:28:35;;;;;;;11.43;4.33;;;9.00;99.90;;;;;;5071820;28;20093;-49
2024/03/23 07:31:12;;;;;;;18.10;5.03;;;9.30;99.90;;;;;;5053635;28;20036;-53
2024/03/23 07:33:42;;;;;;;13.07;4.27;;;9.60;99.90;;;;;;5071643;28;20166;-49
2024/03/23 07:36:08;;;;;;;14.17;4.43;;;9.70;99.90;;;;;;5071490;28;20021;-52
2024/03/23 07:38:34;;;;;;;10.57;4.30;;;10.00;99.90;;;;;;5071639;28;20029;-49
2024/03/23 07:41:23;;;;;;;13.77;3.67;;;10.40;99.90;;;;;;5071612;28;20024;-52
2024/03/23 07:43:49;;;;;;;;;;;10.60;99.90;;;;;;5065569;28;20045;-50
2024/03/23 07:46:16;;;;;;;12.30;3.28;;;10.90;99.90;;;;;;5075634;28;19927;-52
2024/03/23 07:48:44;;;;;;;14.20;3.38;;;11.10;99.90;;;;;;5075603;28;20033;-52
2024/03/23 07:51:18;;;;;;;10.65;3.78;;;11.10;99.90;;;;;;5075591;28;20037;-50
2024/03/23 07:53:46;;;;;;;12.37;4.00;;;11.00;99.90;;;;;;5075467;28;20056;-50
2024/03/23 07:56:12;;;;;;;10.57;3.40;;;10.60;99.90;;;;;;5075223;28;20040;-50
2024/03/23 07:58:38;;;;;;;9.77;3.03;;;10.50;99.90;;;;;;5075411;28;20032;-51
2024/03/23 08:01:08;;;;;;;12.93;3.80;;;10.60;99.90;;;;;;5075339;28;20060;-47
2024/03/23 08:03:38;;;;;;;8.50;3.07;;;10.70;99.90;;;;;;5057441;28;20028;-48
2024/03/23 08:06:12;;;;;;;14.13;3.00;;;10.90;99.90;;;;;;5075103;28;20055;-49
2024/03/23 08:08:39;;;;;;;11.37;3.10;;;11.00;99.90;;;;;;5075108;28;20028;-48
2024/03/23 08:11:05;;;;;;;10.90;2.83;;;11.20;99.90;;;;;;5075090;28;20110;-49
2024/03/23 08:13:31;;;;;;;10.73;3.15;;;11.20;99.90;;;;;;5075056;28;20485;-51
2024/03/23 08:15:58;;;;;;;11.20;2.90;;;11.40;99.90;;;;;;5074803;28;20036;-50
2024/03/23 08:18:23;;;;;;;9.98;3.80;;;11.60;99.90;;;;;;5075075;28;20032;-49
2024/03/23 08:20:59;;;;;;;16.30;3.80;;;11.50;99.90;;;;;;5074926;28;20103;-53
2024/03/23 08:23:25;;;;;;;14.32;3.70;;;11.50;99.90;;;;;;5075059;28;20058;-53
2024/03/23 08:25:52;;;;;;;9.45;2.58;;;11.40;99.90;;;;;;5074753;28;20032;-48
2024/03/23 08:28:17;;;;;;;13.17;3.27;;;11.50;99.90;;;;;;5074802;28;20033;-48
2024/03/23 08:30:43;;;;;;;15.70;3.67;;;11.40;99.90;;;;;;5074903;28;20033;-49
2024/03/23 08:33:09;;;;;;;13.03;3.50;;;11.30;99.90;;;;;;5074796;28;20492;-51
2024/03/23 08:35:34;;;;;;;12.73;3.53;;;10.80;99.90;;;;;;5074423;28;20126;-50
2024/03/23 08:38:00;;;;;;;13.40;3.50;;;10.50;99.90;;;;;;5074734;28;20029;-49
2024/03/23 08:40:26;;;;;;;6.37;2.57;;;10.10;99.90;;;;;;5074652;28;20029;-52
2024/03/23 08:42:51;;;;;;;7.20;1.90;;;9.70;99.90;;;;;;5074695;28;20032;-50
2024/03/23 08:45:17;;;;;;;7.70;1.63;;;9.30;99.90;;;;;;5074427;28;20047;-50
2024/03/23 08:47:43;;;;;;;7.37;2.30;;;8.90;99.90;;;;;;5074565;28;20122;-52
2024/03/23 08:50:09;;;;;;;7.63;2.20;;;8.70;99.90;;;;;;5056583;28;20041;-50
2024/03/23 08:52:35;;;;;;;6.73;1.60;;;8.50;99.90;;;;;;5074591;28;20028;-51
2024/03/23 08:55:01;;;;;;;4.23;1.47;;;8.40;99.90;;;;;;5073283;28;20028;-50
2024/03/23 08:57:26;;;;;;;8.47;2.27;;;8.40;99.90;;;;;;5074369;28;20074;-50
2024/03/23 08:59:52;;;;;;;9.27;1.70;;;8.20;99.90;;;;;;5074630;28;20056;-49
2024/03/23 09:02:18;;;;;;;9.03;1.80;;;8.30;99.90;;;;;;5074597;28;20032;-49
2024/03/23 09:04:45;;;;;;;7.87;2.57;;;8.20;99.90;;;;;;5074263;28;20032;-51
2024/03/23 09:07:10;;;;;;;6.13;2.40;;;8.30;99.90;;;;;;5074616;28;20446;-48
2024/03/23 09:09:39;;;;;;;8.90;2.47;;;8.40;99.90;;;;;;5074426;28;20064;-51
2024/03/23 09:12:05;;;;;;;13.57;3.20;;;8.60;99.90;;;;;;5074934;28;20058;-50
2024/03/23 09:14:30;;;;;;;7.23;2.70;;;8.80;99.90;;;;;;5074520;28;20096;-50
2024/03/23 09:16:56;;;;;;;12.17;3.23;;;9.10;99.90;;;;;;5075072;28;20386;-49
2024/03/23 09:19:22;;;;;;;7.30;3.30;;;9.50;99.90;;;;;;5075147;28;20462;-48
2024/03/23 09:21:49;;;;;;;9.87;3.00;;;9.90;99.90;;;;;;5074656;28;20513;-49
2024/03/23 09:24:14;;;;;;;12.07;3.50;;;10.20;99.90;;;;;;5074395;28;20481;-48
2024/03/23 09:26:40;;;;;;;11.83;3.50;;;10.40;99.90;;;;;;5072586;28;20035;-50
2024/03/23 09:29:06;;;;;;;9.87;3.20;;;10.80;99.90;;;;;;5074209;28;20040;-50
2024/03/23 09:31:33;;;;;;;8.73;3.60;;;11.10;99.90;;;;;;5073897;28;20115;-49
2024/03/23 09:33:59;;;;;;;9.17;3.43;;;11.40;99.90;;;;;;5073467;28;20493;-51
2024/03/23 09:36:24;;;;;;;8.70;3.17;;;11.50;99.90;;;;;;5073605;28;20037;-52
2024/03/23 09:38:50;;;;;;;7.43;2.73;;;11.80;99.90;;;;;;5073689;28;20032;-47
2024/03/23 09:41:15;;;;;;;12.27;2.93;;;12.10;99.90;;;;;;5073436;28;20037;-48
2024/03/23 09:43:41;;;;;;;10.63;3.33;;;11.90;99.90;;;;;;5073541;28;20108;-52
2024/03/23 09:46:07;;;;;;;9.20;2.10;;;12.00;99.90;;;;;;5055329;28;20388;-52
2024/03/23 09:48:33;;;;;;;9.25;1.50;;;11.90;99.90;;;;;;5073426;28;20028;-52
2024/03/23 09:50:59;;;;;;;6.40;1.70;;;11.80;99.90;;;;;;5073251;28;20082;-49
2024/03/23 09:53:25;;;;;;;7.87;1.77;;;11.50;99.90;;;;;;5073360;28;20481;-52
2024/03/23 09:55:50;;;;;;;9.57;1.77;;;11.60;99.90;;;;;;5072945;28;20457;-51
2024/03/23 09:58:18;;;;;;;8.20;1.80;;;11.70;99.90;;;;;;5073176;28;20393;-51
2024/03/23 10:00:44;;;;;;;8.57;1.70;;;11.40;99.90;;;;;;5073146;28;20024;-53
2024/03/23 10:03:11;;;;;;;10.07;1.70;;;11.60;99.90;;;;;;5073138;28;20505;-49
2024/03/23 10:05:37;;;;;;;5.13;1.10;;;11.80;99.90;;;;;;5073068;28;20036;-48
2024/03/23 10:08:14;;;;;;;7.40;2.00;;;12.00;99.90;;;;;;5073057;28;20020;-49
2024/03/23 10:10:44;;;;;;;8.18;1.80;;;12.70;99.90;;;;;;5072915;28;20074;-48
2024/03/23 10:13:12;;;;;;;5.57;1.50;;;13.30;99.90;;;;;;5072876;28;20029;-50
2024/03/23 10:15:39;;;;;;;5.90;1.70;;;13.70;99.90;;;;;;5038119;28;20094;-48
2024/03/23 10:18:21;;;;;;;6.85;1.83;;;14.10;99.90;;;;;;5054921;28;20028;-50
2024/03/23 10:21:14;;;;;;;6.30;1.50;;;14.80;99.00;;;;;;5072756;28;20366;-47
2024/03/23 10:23:44;;;;;;;6.57;1.52;;;14.70;98.90;;;;;;5053458;28;20037;-48
2024/03/23 10:26:21;;;;;;;8.07;1.50;;;14.20;99.90;;;;;;5038357;28;20043;-49
2024/03/23 10:29:01;;;;;;;4.60;1.42;;;13.70;99.90;;;;;;5073114;28;20039;-48
2024/03/23 10:31:35;;;;;;;4.97;1.70;;;13.20;99.90;;;;;;5054581;28;20029;-51
2024/03/23 10:34:02;;;;;;;7.35;1.60;;;12.60;99.90;;;;;;5072188;28;20465;-48
2024/03/23 10:36:30;;;;;;;4.97;1.02;;;11.90;99.90;;;;;;5072226;28;20123;-50
2024/03/23 10:38:58;;;;;;;4.03;0.93;;;11.10;99.90;;;;;;5072293;28;20039;-50
2024/03/23 10:41:27;;;;;;;2.20;0.60;;;10.00;99.90;;;;;;5072215;28;20389;-52
2024/03/23 10:43:55;;;;;;;2.80;0.63;;;9.00;99.90;;;;;;5072265;28;20539;-47
2024/03/23 10:46:21;;;;;;;3.13;0.80;;;8.30;99.90;;;;;;5072115;28;20069;-50
2024/03/23 10:48:47;;;;;;;1.80;0.60;;;7.70;99.90;;;;;;5072212;28;20024;-49
2024/03/23 10:51:14;;;;;;;1.83;0.50;;;7.40;99.90;;;;;;5072595;28;20021;-49
2024/03/23 10:53:40;;;;;;;2.67;0.53;;;7.20;99.90;;;;;;5072142;28;20029;-50
2024/03/23 10:56:07;;;;;;;2.93;0.73;;;7.20;99.90;;;;;;5071834;28;20036;-52
2024/03/23 10:58:42;;;;;;;4.50;0.60;;;7.20;99.90;;;;;;5072137;28;20466;-49
2024/03/23 11:01:11;;;;;;;2.83;0.60;;;7.40;99.90;;;;;;5072316;28;20036;-52
2024/03/23 11:03:37;;;;;;;;;;;7.50;99.90;;;;;;5072623;28;20040;-48
2024/03/23 11:06:08;;;;;;;2.97;0.67;;;7.60;99.90;;;;;;5071887;28;19955;-49
2024/03/23 11:08:38;;;;;;;4.77;0.90;;;8.20;99.90;;;;;;5072057;28;20040;-51
2024/03/23 11:11:21;;;;;;;3.33;0.80;;;9.20;99.90;;;;;;5053993;28;20039;-51
2024/03/23 11:13:52;;;;;;;2.63;0.80;;;9.90;99.90;;;;;;5053900;28;20469;-50
2024/03/23 11:16:27;;;;;;;3.63;1.30;;;10.20;99.90;;;;;;5071832;28;20374;-51
2024/03/23 11:18:53;;;;;;;5.07;0.90;;;10.30;99.90;;;;;;5071535;28;20039;-52
2024/03/23 11:21:54;;;;;;;5.40;1.13;;;10.80;99.90;;;;;;5071869;28;20020;-50
2024/03/23 11:24:20;;;;;;;5.28;1.20;;;11.90;99.90;;;;;;5071695;28;20032;-52
2024/03/23 11:26:46;;;;;;;3.53;1.00;;;12.70;99.90;;;;;;5071940;28;20029;-49
2024/03/23 11:29:14;;;;;;;4.63;1.13;;;13.20;99.90;;;;;;5071893;28;20024;-52
2024/03/23 11:31:53;;;;;;;4.75;1.20;;;13.70;99.90;;;;;;5071798;28;20024;-49
2024/03/23 11:34:20;;;;;;;4.75;1.10;;;14.40;99.90;;;;;;5053659;28;20033;-54
2024/03/23 11:36:46;;;;;;;8.90;1.52;;;15.00;99.90;;;;;;5071648;28;20078;-53
2024/03/23 11:39:17;;;;;;;6.15;1.52;;;15.50;99.70;;;;;;5071548;28;20108;-49
2024/03/23 11:41:51;;;;;;;6.00;1.23;;;16.30;99.10;;;;;;5053968;28;20044;-51
2024/03/23 11:44:23;;;;;;;4.97;1.30;;;16.60;98.80;;;;;;5071554;28;20393;-52
2024/03/23 11:46:49;;;;;;;5.22;1.10;;;17.00;97.30;;;;;;5071765;28;20106;-54
2024/03/23 11:49:29;;;;;;;5.10;1.15;;;16.50;96.00;;;;;;5071551;28;20123;-51
2024/03/23 11:51:56;;;;;;;3.65;1.00;;;16.10;94.30;;;;;;5071762;28;20040;-50
2024/03/23 11:54:23;;;;;;;2.80;0.90;;;15.90;94.40;;;;;;5053455;28;20123;-51
2024/03/23 11:56:59;;;;;;;2.97;0.90;;;14.60;94.60;;;;;;5071534;28;20560;-49
2024/03/23 11:59:36;;;;;;;4.38;0.80;;;12.70;96.00;;;;;;5053822;28;20031;-50
2024/03/23 12:02:14;;;;;;;4.25;1.05;;;11.70;98.10;;;;;;5071620;28;20610;-50
2024/03/23 12:04:41;;;;;;;2.63;0.80;;;10.90;99.90;;;;;;5071632;28;20036;-49
2024/03/23 12:07:18;;;;;;;2.27;0.90;;;10.30;99.90;;;;;;5071696;28;20384;-50
2024/03/23 12:09:46;;;;;;;6.37;1.23;;;9.80;99.90;;;;;;5071358;28;20393;-51
2024/03/23 12:12:16;;;;;;;2.63;0.90;;;9.80;99.90;;;;;;5071459;28;20032;-49
2024/03/23 12:14:43;;;;;;;3.37;1.23;;;10.50;99.90;;;;;;5071180;28;20040;-49
2024/03/23 12:17:13;;;;;;;5.30;1.30;;;11.00;99.90;;;;;;5071310;28;20052;-50
2024/03/23 12:19:42;;;;;;;5.83;1.37;;;11.00;99.90;;;;;;5071237;28;20025;-49
2024/03/23 12:22:08;;;;;;;4.53;1.25;;;10.80;99.90;;;;;;5053412;28;20052;-50
2024/03/23 12:24:35;;;;;;;4.63;1.40;;;10.60;99.90;;;;;;5071337;28;20060;-49
2024/03/23 12:27:03;;;;;;;4.63;1.40;;;10.70;99.90;;;;;;5071242;28;20056;-50
2024/03/23 12:29:30;;;;;;;6.90;1.57;;;10.80;99.90;;;;;;5071296;28;20093;-49
2024/03/23 12:31:55;;;;;;;4.33;1.20;;;11.00;99.90;;;;;;5074624;28;20377;-51
2024/03/23 12:34:21;;;;;;;3.90;1.00;;;11.20;99.90;;;;;;5074600;28;20028;-48
2024/03/23 12:36:47;;;;;;;4.27;1.00;;;11.20;99.90;;;;;;5056713;28;20473;-52
2024/03/23 12:39:12;;;;;;;7.07;1.20;;;11.40;99.90;;;;;;5074796;28;20025;-52
2024/03/23 12:41:38;;;;;;;5.70;1.43;;;11.70;99.90;;;;;;5074613;28;20074;-51
2024/03/23 12:44:03;;;;;;;6.37;1.60;;;12.00;99.90;;;;;;5074555;28;20027;-52
2024/03/23 12:46:29;;;;;;;4.83;1.00;;;11.70;99.90;;;;;;5074486;28;20462;-50
2024/03/23 12:48:54;;;;;;;3.83;1.37;;;11.10;99.90;;;;;;5074726;28;20310;-51